createdAt,value
2023-01-08T00:01:18.218Z,100489.31
2023-01-08T00:03:45.678Z,100485.19
2023-01-08T00:06:17.711Z,100479.69
2023-01-08T00:08:45.626Z,100479.25
2023-01-08T00:11:13.411Z,100478.44
2023-01-08T00:13:40.530Z,100483.94
2023-01-08T00:16:14.622Z,100473.78
2023-01-08T00:18:42.038Z,100476.66
2023-01-08T00:21:09.291Z,100492.19
2023-01-08T00:23:37.157Z,100487.94
2023-01-08T00:26:09.446Z,100480.81
2023-01-08T00:28:37.545Z,100481.56
2023-01-08T00:31:09.815Z,100484.19
2023-01-08T00:33:38.385Z,100480.47
2023-01-08T00:36:18.048Z,100470.25
2023-01-08T00:38:46.526Z,100459.50
2023-01-08T00:41:15.288Z,100471.47
2023-01-08T00:43:42.489Z,100471.22
2023-01-08T00:46:09.910Z,100471.09
2023-01-08T00:48:38.854Z,100469.06
2023-01-08T00:51:08.588Z,100465.28
2023-01-08T00:53:38.072Z,100465.16
2023-01-08T00:56:09.314Z,100452.09
2023-01-08T00:58:36.884Z,100457.69
2023-01-08T01:01:13.952Z,100468.88
2023-01-08T01:03:41.624Z,100452.28
2023-01-08T01:06:10.450Z,100458.16
2023-01-08T01:08:37.549Z,100443.41
2023-01-08T01:11:10.156Z,100449.41
2023-01-08T01:13:37.227Z,100448.81
2023-01-08T01:16:04.644Z,100451.53
2023-01-08T01:18:31.850Z,100447.28
2023-01-08T01:20:58.872Z,100445.53
2023-01-08T01:23:25.911Z,100435.72
2023-01-08T01:25:54.488Z,100434.88
2023-01-08T01:28:22.356Z,100446.03
2023-01-08T01:30:56.631Z,100434.22
2023-01-08T01:33:23.853Z,100437.97
2023-01-08T01:36:01.061Z,100434.16
2023-01-08T01:38:28.555Z,100431.59
2023-01-08T01:40:55.809Z,100433.78
2023-01-08T01:43:39.964Z,100433.91
2023-01-08T01:46:25.444Z,100432.78
2023-01-08T01:48:59.531Z,100429.47
2023-01-08T01:51:32.715Z,100425.84
2023-01-08T01:54:03.214Z,100423.03
2023-01-08T01:56:32.279Z,100411.94
2023-01-08T01:58:59.762Z,100422.59
2023-01-08T02:01:27.307Z,100421.16
2023-01-08T02:03:54.453Z,100422.44
2023-01-08T02:06:59.528Z,100417.47
2023-01-08T02:09:52.038Z,100397.88
2023-01-08T02:12:29.700Z,100402.53
2023-01-08T02:15:31.060Z,100393.03
2023-01-08T02:18:37.675Z,100391.31
2023-01-08T02:21:31.576Z,100388.41
2023-01-08T02:24:16.649Z,100393.16
2023-01-08T02:26:47.156Z,100386.03
2023-01-08T02:29:20.702Z,100389.47
2023-01-08T02:31:47.866Z,100392.97
2023-01-08T02:34:15.559Z,100383.56
2023-01-08T02:36:48.407Z,100386.94
2023-01-08T02:39:33.169Z,100386.03
2023-01-08T02:42:36.857Z,100378.00
2023-01-08T02:45:37.937Z,100384.31
2023-01-08T02:48:24.790Z,100380.00
2023-01-08T02:51:06.220Z,100375.66
2023-01-08T02:53:45.755Z,100374.53
2023-01-08T02:56:24.583Z,100369.28
2023-01-08T02:58:54.160Z,100369.66
2023-01-08T03:01:23.447Z,100368.88
2023-01-08T03:03:57.346Z,100370.16
2023-01-08T03:06:26.940Z,100364.91
2023-01-08T03:08:54.940Z,100367.63
2023-01-08T03:11:24.903Z,100369.72
2023-01-08T03:14:07.644Z,100355.94
2023-01-08T03:16:47.482Z,100349.13
2023-01-08T03:19:31.511Z,100347.25
2023-01-08T03:22:00.928Z,100345.84
2023-01-08T03:24:33.798Z,100339.03
2023-01-08T03:27:05.408Z,100341.66
2023-01-08T03:29:35.042Z,100348.06
2023-01-08T03:32:07.567Z,100343.22
2023-01-08T03:34:39.398Z,100349.25
2023-01-08T03:37:09.655Z,100337.72
2023-01-08T03:40:00.051Z,100332.66
2023-01-08T03:42:28.925Z,100340.75
2023-01-08T03:44:55.996Z,100344.97
2023-01-08T03:47:24.918Z,100339.44
2023-01-08T03:49:55.454Z,100334.00
2023-01-08T03:52:28.670Z,100343.25
2023-01-08T03:54:55.850Z,100340.97
2023-01-08T03:57:23.279Z,100336.09
2023-01-08T03:59:50.270Z,100337.34
2023-01-08T04:02:17.735Z,100343.47
2023-01-08T04:04:44.913Z,100353.66
2023-01-08T04:07:15.016Z,100349.09
2023-01-08T04:09:42.008Z,100343.47
2023-01-08T04:12:09.006Z,100345.41
2023-01-08T04:14:36.002Z,100347.91
2023-01-08T04:17:03.106Z,100348.91
2023-01-08T04:19:30.158Z,100354.13
2023-01-08T04:21:57.214Z,100351.19
2023-01-08T04:24:24.356Z,100351.88
2023-01-08T04:26:51.332Z,100333.56
2023-01-08T04:29:18.428Z,100332.47
2023-01-08T04:31:45.406Z,100332.06
2023-01-08T04:34:12.476Z,100326.72
2023-01-08T04:36:39.576Z,100322.03
2023-01-08T04:39:07.839Z,100324.66
2023-01-08T04:41:34.837Z,100324.91
2023-01-08T04:44:01.842Z,100328.97
2023-01-08T04:46:29.193Z,100330.72
2023-01-08T04:48:56.311Z,100321.88
2023-01-08T04:51:26.331Z,100335.09
2023-01-08T04:53:53.591Z,100327.78
2023-01-08T04:56:20.591Z,100316.38
2023-01-08T04:58:47.627Z,100322.69
2023-01-08T05:01:22.529Z,100317.66
2023-01-08T05:03:58.580Z,100319.34
2023-01-08T05:06:26.671Z,100328.28
2023-01-08T05:08:53.860Z,100324.69
2023-01-08T05:11:21.355Z,100329.72
2023-01-08T05:13:52.686Z,100328.53
2023-01-08T05:16:20.082Z,100317.00
2023-01-08T05:18:47.462Z,100316.00
2023-01-08T05:21:15.383Z,100310.50
2023-01-08T05:23:47.717Z,100298.09
2023-01-08T05:26:15.977Z,100298.34
2023-01-08T05:28:43.423Z,100291.66
2023-01-08T05:31:11.807Z,100291.13
2023-01-08T05:33:39.614Z,100300.16
2023-01-08T05:36:12.474Z,100303.59
2023-01-08T05:38:40.571Z,100302.84
2023-01-08T05:41:08.087Z,100299.16
2023-01-08T05:43:35.979Z,100310.44
2023-01-08T05:46:04.617Z,100293.41
2023-01-08T05:48:34.866Z,100296.63
2023-01-08T05:51:02.697Z,100302.78
2023-01-08T05:53:32.071Z,100306.75
2023-01-08T05:56:07.198Z,100292.31
2023-01-08T05:58:36.505Z,100303.31
2023-01-08T06:01:09.128Z,100308.47
2023-01-08T06:03:36.596Z,100287.88
2023-01-08T06:06:06.727Z,100294.66
2023-01-08T06:08:34.537Z,100289.78
2023-01-08T06:11:05.738Z,100288.91
2023-01-08T06:13:34.727Z,100291.25
2023-01-08T06:16:02.696Z,100290.00
2023-01-08T06:18:31.226Z,100296.69
2023-01-08T06:20:58.215Z,100297.81
2023-01-08T06:23:25.749Z,100286.38
2023-01-08T06:25:55.487Z,100315.50
2023-01-08T06:28:23.491Z,100307.34
2023-01-08T06:30:50.750Z,100290.84
2023-01-08T06:33:20.898Z,100272.22
2023-01-08T06:35:48.198Z,100282.75
2023-01-08T06:38:15.867Z,100278.28
2023-01-08T06:40:42.876Z,100275.94
2023-01-08T06:43:09.864Z,100265.84
2023-01-08T06:45:36.875Z,100278.28
2023-01-08T06:48:06.629Z,100269.00
2023-01-08T06:50:35.085Z,100256.81
2023-01-08T06:53:02.100Z,100270.63
2023-01-08T06:55:29.119Z,100257.63
2023-01-08T06:57:58.306Z,100269.53
2023-01-08T07:00:27.351Z,100256.38
2023-01-08T07:02:55.622Z,100259.44
2023-01-08T07:05:23.683Z,100260.63
2023-01-08T07:07:50.795Z,100264.59
2023-01-08T07:10:19.944Z,100260.16
2023-01-08T07:12:47.922Z,100259.63
2023-01-08T07:15:15.281Z,100269.88
2023-01-08T07:17:42.290Z,100247.28
2023-01-08T07:20:10.076Z,100247.72
2023-01-08T07:22:37.105Z,100246.09
2023-01-08T07:25:05.254Z,100248.91
2023-01-08T07:27:32.307Z,100240.41
2023-01-08T07:29:59.416Z,100239.00
2023-01-08T07:32:26.532Z,100237.78
2023-01-08T07:34:54.749Z,100223.69
2023-01-08T07:37:21.843Z,100232.06
2023-01-08T07:39:48.895Z,100225.63
2023-01-08T07:42:15.946Z,100211.38
2023-01-08T07:44:42.971Z,100217.03
2023-01-08T07:47:10.050Z,100218.66
2023-01-08T07:49:37.041Z,100209.16
2023-01-08T07:52:04.230Z,100220.00
2023-01-08T07:54:31.220Z,100218.03
2023-01-08T07:56:58.228Z,100225.94
2023-01-08T07:59:25.234Z,100216.63
2023-01-08T08:01:52.330Z,100210.16
2023-01-08T08:04:19.436Z,100218.47
2023-01-08T08:06:46.427Z,100212.31
2023-01-08T08:09:13.451Z,100220.91
2023-01-08T08:11:40.470Z,100226.16
2023-01-08T08:14:07.982Z,100212.31
2023-01-08T08:16:35.272Z,100227.38
2023-01-08T08:19:02.322Z,100222.63
2023-01-08T08:21:32.328Z,100212.72
2023-01-08T08:23:59.380Z,100208.41
2023-01-08T08:26:26.354Z,100207.09
2023-01-08T08:28:53.341Z,100207.59
2023-01-08T08:31:20.388Z,100200.56
2023-01-08T08:33:47.569Z,100199.56
2023-01-08T08:36:14.613Z,100189.28
2023-01-08T08:38:41.641Z,100191.66
2023-01-08T08:41:08.685Z,100192.66
2023-01-08T08:43:35.767Z,100195.44
2023-01-08T08:46:02.740Z,100186.47
2023-01-08T08:48:29.781Z,100198.72
2023-01-08T08:50:56.814Z,100182.56
2023-01-08T08:53:24.753Z,100175.03
2023-01-08T08:55:52.436Z,100168.81
2023-01-08T08:58:19.455Z,100171.91
2023-01-08T09:00:46.431Z,100186.31
2023-01-08T09:03:17.215Z,100189.38
2023-01-08T09:05:44.341Z,100185.47
2023-01-08T09:08:13.808Z,100184.22
2023-01-08T09:10:44.248Z,100196.97
2023-01-08T09:13:12.255Z,100196.47
2023-01-08T09:15:39.585Z,100196.59
2023-01-08T09:18:06.670Z,100192.78
2023-01-08T09:20:33.727Z,100186.00
2023-01-08T09:23:01.902Z,100177.44
2023-01-08T09:25:29.498Z,100171.56
2023-01-08T09:28:06.741Z,100172.56
2023-01-08T09:30:34.754Z,100174.28
2023-01-08T09:33:03.492Z,100165.75
2023-01-08T09:35:31.897Z,100174.25
2023-01-08T09:37:59.538Z,100171.50
2023-01-08T09:40:38.095Z,100154.72
2023-01-08T09:43:06.245Z,100157.28
2023-01-08T09:45:39.306Z,100173.19
2023-01-08T09:48:12.916Z,100158.09
2023-01-08T09:50:40.244Z,100143.19
2023-01-08T09:53:15.176Z,100141.94
2023-01-08T09:55:43.333Z,100136.13
2023-01-08T09:58:31.145Z,100135.56
2023-01-08T10:00:59.930Z,100138.44
2023-01-08T10:03:52.733Z,100133.31
2023-01-08T10:06:19.979Z,100126.88
2023-01-08T10:08:47.121Z,100126.44
2023-01-08T10:11:16.426Z,100137.69
2023-01-08T10:13:57.178Z,100126.41
2023-01-08T10:16:33.834Z,100120.72
2023-01-08T10:19:03.037Z,100139.19
2023-01-08T10:21:38.264Z,100119.84
2023-01-08T10:24:05.585Z,100120.00
2023-01-08T10:26:36.863Z,100113.63
2023-01-08T10:29:16.071Z,100104.97
2023-01-08T10:31:56.220Z,100097.84
2023-01-08T10:34:31.465Z,100105.09
2023-01-08T10:36:58.975Z,100112.69
2023-01-08T10:39:30.986Z,100112.03
2023-01-08T10:42:06.408Z,100097.19
2023-01-08T10:44:33.555Z,100076.75
2023-01-08T10:47:01.892Z,100065.97
2023-01-08T10:49:42.029Z,100066.81
2023-01-08T10:52:34.396Z,100075.31
2023-01-08T10:55:31.998Z,100062.47
2023-01-08T10:58:01.416Z,100061.03
2023-01-08T11:00:35.257Z,100057.59
2023-01-08T11:03:08.784Z,100051.44
2023-01-08T11:05:41.072Z,100052.16
2023-01-08T11:08:17.882Z,100068.78
2023-01-08T11:10:58.445Z,100049.13
2023-01-08T11:13:27.409Z,100054.66
2023-01-08T11:16:07.910Z,100051.28
2023-01-08T11:18:48.880Z,100051.22
2023-01-08T11:21:25.732Z,100049.72
2023-01-08T11:24:30.166Z,100072.19
2023-01-08T11:27:11.463Z,100052.28
2023-01-08T11:30:19.280Z,100054.84
2023-01-08T11:33:05.967Z,100050.56
2023-01-08T11:36:02.186Z,100050.41
2023-01-08T11:38:29.367Z,100049.16
2023-01-08T11:41:17.161Z,100060.56
2023-01-08T11:44:40.275Z,100049.59
2023-01-08T11:47:25.349Z,100039.94
2023-01-08T11:50:17.470Z,100040.91
2023-01-08T11:53:00.266Z,100044.03
2023-01-08T11:56:07.643Z,100052.59
2023-01-08T11:59:25.169Z,100037.47
2023-01-08T12:02:10.331Z,100029.63
2023-01-08T12:05:29.931Z,100023.47
2023-01-08T12:08:07.240Z,100014.47
2023-01-08T12:11:03.863Z,100036.66
2023-01-08T12:14:15.313Z,100048.69
2023-01-08T12:16:49.707Z,100033.88
2023-01-08T12:19:54.716Z,100020.25
2023-01-08T12:22:43.485Z,100017.41
2023-01-08T12:25:45.423Z,100021.84
2023-01-08T12:28:56.446Z,100018.97
2023-01-08T12:31:40.403Z,100018.41
2023-01-08T12:34:19.550Z,100019.94
2023-01-08T12:36:54.855Z,100017.94
2023-01-08T12:39:30.183Z,100015.56
2023-01-08T12:42:24.646Z,100031.03
2023-01-08T12:44:57.713Z,100027.09
2023-01-08T12:47:31.883Z,100011.19
2023-01-08T12:50:07.679Z,100017.78
2023-01-08T12:53:02.091Z,100015.31
2023-01-08T12:56:31.846Z,99995.44
2023-01-08T12:59:20.102Z,100019.66
2023-01-08T13:01:58.109Z,100018.19
2023-01-08T13:04:25.292Z,100010.88
2023-01-08T13:07:04.218Z,100010.72
2023-01-08T13:09:32.858Z,100008.41
2023-01-08T13:12:01.223Z,100011.44
2023-01-08T13:14:28.502Z,100014.00
2023-01-08T13:17:15.937Z,100003.59
2023-01-08T13:19:52.046Z,100002.78
2023-01-08T13:22:35.655Z,100007.66
2023-01-08T13:25:30.758Z,99987.13
2023-01-08T13:27:58.725Z,99990.06
2023-01-08T13:30:43.042Z,99997.78
2023-01-08T13:33:35.753Z,99999.47
2023-01-08T13:36:34.900Z,99994.09
2023-01-08T13:39:21.256Z,99991.25
2023-01-08T13:42:10.996Z,99990.19
2023-01-08T13:44:47.411Z,99991.25
2023-01-08T13:47:36.004Z,99995.84
2023-01-08T13:50:20.940Z,99987.66
2023-01-08T13:52:56.383Z,99988.22
2023-01-08T13:55:38.182Z,100000.75
2023-01-08T13:58:15.710Z,99985.38
2023-01-08T14:00:42.558Z,100007.94
2023-01-08T14:03:46.539Z,100003.41
2023-01-08T14:06:26.609Z,100011.84
2023-01-08T14:09:03.327Z,100016.44
2023-01-08T14:11:44.642Z,99997.34
2023-01-08T14:14:18.936Z,99985.31
2023-01-08T14:16:48.554Z,99985.88
2023-01-08T14:19:25.203Z,99994.53
2023-01-08T14:21:56.498Z,99973.91
2023-01-08T14:24:26.168Z,99977.25
2023-01-08T14:26:57.280Z,99977.09
2023-01-08T14:29:28.195Z,99973.16
2023-01-08T14:32:00.341Z,99972.66
2023-01-08T14:34:31.110Z,99974.41
2023-01-08T14:36:58.498Z,99976.66
2023-01-08T14:39:34.458Z,99974.13
2023-01-08T14:42:47.201Z,99962.84
2023-01-08T14:45:26.695Z,99963.34
2023-01-08T14:48:25.866Z,99953.72
2023-01-08T14:51:17.512Z,99952.59
2023-01-08T14:53:55.666Z,99957.75
2023-01-08T14:56:28.308Z,99959.53
2023-01-08T14:58:55.941Z,99967.84
2023-01-08T15:01:30.646Z,99957.47
2023-01-08T15:04:20.140Z,99949.16
2023-01-08T15:06:47.446Z,99939.19
2023-01-08T15:09:25.263Z,99930.13
2023-01-08T15:11:58.883Z,99938.78
2023-01-08T15:14:29.473Z,99939.19
2023-01-08T15:16:59.612Z,99948.72
2023-01-08T15:19:29.555Z,99934.88
2023-01-08T15:22:01.801Z,99934.31
2023-01-08T15:24:34.027Z,99930.88
2023-01-08T15:27:11.502Z,99934.13
2023-01-08T15:29:50.247Z,99929.31
2023-01-08T15:32:17.100Z,99927.34
2023-01-08T15:34:46.184Z,99923.84
2023-01-08T15:37:15.171Z,99912.56
2023-01-08T15:39:42.840Z,99923.75
2023-01-08T15:42:47.648Z,99929.72
2023-01-08T15:45:19.153Z,99926.06
2023-01-08T15:47:46.467Z,99913.91
2023-01-08T15:50:13.684Z,99915.22
2023-01-08T15:52:42.804Z,99912.91
2023-01-08T15:55:22.579Z,99909.47
2023-01-08T15:57:50.415Z,99909.31
2023-01-08T16:00:19.864Z,99911.34
2023-01-08T16:02:50.679Z,99910.38
2023-01-08T16:05:19.572Z,99911.53
2023-01-08T16:07:47.142Z,99887.28
2023-01-08T16:10:15.925Z,99883.44
2023-01-08T16:12:46.008Z,99880.50
2023-01-08T16:15:15.136Z,99880.91
2023-01-08T16:17:43.328Z,99900.09
2023-01-08T16:20:12.387Z,99871.16
2023-01-08T16:22:39.714Z,99866.97
2023-01-08T16:25:08.172Z,99878.22
2023-01-08T16:27:35.850Z,99860.59
2023-01-08T16:30:03.057Z,99860.28
2023-01-08T16:32:30.028Z,99867.78
2023-01-08T16:34:57.028Z,99852.28
2023-01-08T16:37:24.159Z,99847.06
2023-01-08T16:39:51.248Z,99845.31
2023-01-08T16:42:18.317Z,99854.78
2023-01-08T16:44:45.410Z,99864.44
2023-01-08T16:47:12.489Z,99884.31
2023-01-08T16:49:41.616Z,99879.34
2023-01-08T16:52:09.807Z,99892.16
2023-01-08T16:54:37.384Z,99889.31
2023-01-08T16:57:04.638Z,99881.63
2023-01-08T16:59:33.115Z,99882.44
2023-01-08T17:02:00.566Z,99871.28
2023-01-08T17:04:30.253Z,99877.69
2023-01-08T17:06:58.040Z,99879.19
2023-01-08T17:09:25.710Z,99877.06
2023-01-08T17:11:52.742Z,99872.47
2023-01-08T17:14:20.125Z,99871.81
2023-01-08T17:16:49.072Z,99868.78
2023-01-08T17:19:17.379Z,99859.25
2023-01-08T17:21:45.900Z,99861.06
2023-01-08T17:24:13.087Z,99844.97
2023-01-08T17:26:40.265Z,99841.81
2023-01-08T17:29:07.389Z,99841.88
2023-01-08T17:31:39.974Z,99847.13
2023-01-08T17:34:16.048Z,99850.28
2023-01-08T17:36:43.575Z,99847.41
2023-01-08T17:39:12.258Z,99838.69
2023-01-08T17:41:58.123Z,99831.66
2023-01-08T17:44:26.545Z,99827.19
2023-01-08T17:46:53.615Z,99826.75
2023-01-08T17:49:20.676Z,99820.47
2023-01-08T17:51:47.724Z,99833.88
2023-01-08T17:54:17.160Z,99831.41
2023-01-08T17:56:44.740Z,99827.91
2023-01-08T17:59:17.686Z,99812.22
2023-01-08T18:01:45.917Z,99812.22
2023-01-08T18:04:14.846Z,99800.78
2023-01-08T18:06:42.971Z,99780.53
2023-01-08T18:09:12.092Z,99792.06
2023-01-08T18:11:40.748Z,99785.69
2023-01-08T18:14:09.773Z,99790.91
2023-01-08T18:16:36.822Z,99779.94
2023-01-08T18:19:04.238Z,99791.00
2023-01-08T18:21:31.305Z,99801.59
2023-01-08T18:23:58.368Z,99802.34
2023-01-08T18:26:25.390Z,99796.22
2023-01-08T18:28:53.127Z,99782.78
2023-01-08T18:31:20.370Z,99795.78
2023-01-08T18:33:51.601Z,99793.00
2023-01-08T18:36:19.774Z,99794.81
2023-01-08T18:38:47.895Z,99799.38
2023-01-08T18:41:36.653Z,99797.53
2023-01-08T18:44:07.521Z,99808.63
2023-01-08T18:46:34.896Z,99823.66
2023-01-08T18:49:02.148Z,99809.13
2023-01-08T18:51:29.189Z,99812.75
2023-01-08T18:53:56.353Z,99810.03
2023-01-08T18:56:33.621Z,99817.78
2023-01-08T18:59:02.755Z,99811.00
2023-01-08T19:01:30.308Z,99815.41
2023-01-08T19:03:57.481Z,99814.09
2023-01-08T19:06:25.258Z,99790.09
2023-01-08T19:08:52.729Z,99793.13
2023-01-08T19:11:19.889Z,99785.50
2023-01-08T19:13:46.969Z,99775.88
2023-01-08T19:16:17.217Z,99778.16
2023-01-08T19:18:44.543Z,99784.97
2023-01-08T19:21:14.683Z,99769.00
2023-01-08T19:23:41.834Z,99770.66
2023-01-08T19:26:09.451Z,99767.28
2023-01-08T19:28:36.848Z,99779.13
2023-01-08T19:31:04.160Z,99776.69
2023-01-08T19:33:31.433Z,99778.47
2023-01-08T19:36:11.091Z,99781.22
2023-01-08T19:38:39.717Z,99785.56
2023-01-08T19:41:27.240Z,99802.69
2023-01-08T19:43:58.330Z,99792.13
2023-01-08T19:46:25.879Z,99796.47
2023-01-08T19:48:56.183Z,99793.94
2023-01-08T19:51:24.344Z,99800.13
2023-01-08T19:53:53.076Z,99805.69
2023-01-08T19:56:20.217Z,99813.16
2023-01-08T19:58:47.231Z,99793.72
2023-01-08T20:01:21.526Z,99796.34
2023-01-08T20:03:49.298Z,99794.63
2023-01-08T20:06:20.459Z,99782.97
2023-01-08T20:08:53.193Z,99789.63
2023-01-08T20:11:22.425Z,99780.25
2023-01-08T20:13:50.929Z,99762.13
2023-01-08T20:16:20.752Z,99763.81
2023-01-08T20:18:48.334Z,99756.72
2023-01-08T20:21:20.933Z,99743.38
2023-01-08T20:23:49.225Z,99747.69
2023-01-08T20:26:18.432Z,99741.56
2023-01-08T20:28:47.035Z,99738.19
2023-01-08T20:31:20.450Z,99732.25
2023-01-08T20:33:48.832Z,99720.16
2023-01-08T20:36:21.465Z,99720.38
2023-01-08T20:38:53.774Z,99709.63
2023-01-08T20:41:21.130Z,99720.25
2023-01-08T20:43:48.636Z,99704.78
2023-01-08T20:46:16.267Z,99700.81
2023-01-08T20:48:47.678Z,99688.56
2023-01-08T20:51:15.916Z,99683.81
2023-01-08T20:53:43.027Z,99671.72
2023-01-08T20:56:13.831Z,99666.41
2023-01-08T20:58:44.879Z,99652.78
2023-01-08T21:01:24.280Z,99651.41
2023-01-08T21:03:56.028Z,99653.00
2023-01-08T21:06:26.922Z,99648.16
2023-01-08T21:08:57.564Z,99641.06
2023-01-08T21:11:26.097Z,99642.66
2023-01-08T21:13:54.474Z,99641.06
2023-01-08T21:16:28.775Z,99630.72
2023-01-08T21:18:57.908Z,99628.22
2023-01-08T21:21:32.977Z,99629.09
2023-01-08T21:24:05.750Z,99631.88
2023-01-08T21:26:37.012Z,99617.19
2023-01-08T21:29:08.148Z,99623.66
2023-01-08T21:31:37.029Z,99620.53
2023-01-08T21:34:06.101Z,99610.91
2023-01-08T21:36:33.223Z,99592.22
2023-01-08T21:39:01.668Z,99622.56
2023-01-08T21:41:48.955Z,99605.75
2023-01-08T21:44:40.881Z,99586.56
2023-01-08T21:47:16.615Z,99588.22
2023-01-08T21:49:44.985Z,99591.38
2023-01-08T21:52:30.563Z,99578.84
2023-01-08T21:55:00.703Z,99589.03
2023-01-08T21:57:28.151Z,99583.59
2023-01-08T21:59:55.720Z,99593.06
2023-01-08T22:02:24.504Z,99586.41
2023-01-08T22:04:56.233Z,99587.44
2023-01-08T22:07:24.891Z,99592.06
2023-01-08T22:09:52.100Z,99579.72
2023-01-08T22:12:19.098Z,99591.72
2023-01-08T22:14:46.165Z,99579.91
2023-01-08T22:17:13.261Z,99573.34
2023-01-08T22:19:41.121Z,99597.84
2023-01-08T22:22:10.714Z,99575.75
2023-01-08T22:24:39.642Z,99581.88
2023-01-08T22:27:10.434Z,99569.09
2023-01-08T22:29:38.309Z,99571.00
2023-01-08T22:32:05.750Z,99571.16
2023-01-08T22:34:34.742Z,99575.00
2023-01-08T22:37:02.268Z,99565.28
2023-01-08T22:39:29.343Z,99568.81
2023-01-08T22:41:56.429Z,99562.84
2023-01-08T22:44:23.486Z,99564.03
2023-01-08T22:46:50.522Z,99578.13
2023-01-08T22:49:17.551Z,99573.56
2023-01-08T22:51:44.607Z,99541.78
2023-01-08T22:54:17.228Z,99540.28
2023-01-08T22:56:44.489Z,99532.97
2023-01-08T22:59:11.549Z,99529.34
2023-01-08T23:01:38.602Z,99540.72
2023-01-08T23:04:05.990Z,99523.22
2023-01-08T23:06:33.457Z,99522.25
2023-01-08T23:09:00.781Z,99510.44
2023-01-08T23:11:28.890Z,99498.13
2023-01-08T23:13:56.254Z,99486.44
2023-01-08T23:16:25.475Z,99480.25
2023-01-08T23:18:54.434Z,99471.84
2023-01-08T23:21:24.298Z,99474.25
2023-01-08T23:23:51.660Z,99468.19
2023-01-08T23:26:28.860Z,99465.22
2023-01-08T23:28:57.827Z,99450.16
2023-01-08T23:31:28.651Z,99452.88
2023-01-08T23:33:56.878Z,99455.94
2023-01-08T23:36:24.434Z,99458.72
2023-01-08T23:38:55.045Z,99467.44
2023-01-08T23:41:31.678Z,99454.56
2023-01-08T23:44:01.955Z,99455.53
2023-01-08T23:46:29.612Z,99452.88
2023-01-08T23:48:56.990Z,99439.69
2023-01-08T23:51:24.460Z,99431.66
2023-01-08T23:53:51.621Z,99421.34
2023-01-08T23:56:20.821Z,99420.94
2023-01-08T23:58:49.187Z,99413.97
